Airfield :
LOGIN :

Register | Disclaimer

   EN    FR    IT 

 










Legend :    VFR   Marginal VFR   IFR   Intensive IFR   Very Intensive IFR
Visi :
Ceiling :
>= 8 km
>= 3000ft
5 to 8 km
1000 to 3000 ft
1500m to 5 km
500 to 1000 ft
800 to 1500m
200 to 500 ft
< 800m
< 200 ft
Symbols :   Thunderstorms  Fog  Heavy snow  Heavy precipitations  Wind > 20 kt
SIGMETs :     Misc.  Thunderstorms  Icing  Turbulence  Mountain Waves  Volcanic Ashes






- Airport Elevation : 15 ft
- IATA code : GIB


LXGB - Gibraltar

CURRENT METAR :
  • 170650Z 03006KT 9999 4000E VCFG BKN003 20/18 Q1016 TEMPO 0600 FG RMK YLO2 TEMPO RED

EXPIRED METARs :
  • 170550Z 05006KT 9999 FEW006 20/18 Q1016 RMK BLU
  • 170450Z 26003KT CAVOK 20/18 Q1015 RMK BLU

TAF AMD TAF LXGB
Valid from the 17 at 06:00 until the 17 at 15:00 UTC


170656Z 1706/1715 05005KT 9999 FEW006
TEMPO 1706/1715 3000 HZ SCT003
PROB40
TEMPO 1707/1713 0600 FG SCT001



MET'MAP, your aeronautical weather chart ! - Copyright ORBIFLY December 2007 - Disclaimer

ORBIFLY MET'MAP TEAM :

Programming & Development : Alexandra Zaïnal
Concept & original design : Baudouin d'Aumeries
Assistance for programming : Marc-Olivier Méhu
Technical & hardware support : Manuel Goepfert

Contact : metmap@orbifly.com




SOURCES & CREDITS :

   NOAA